Time;durP1;ratioP1;P1;durP2;ratioP2;P2;SDS_P1;SDS_P2;PMS_P1;PMS_P2;Temp;Humidity;BMP_temperature;BMP_pressure;BME280_temperature;BME280_humidity;BME280_pressure;Samples;Min_cycle;Max_cycle;Signal;HPM_P1;HPM_P2
2022/11/07 00:02:13;;;;;;;4.30;2.83;;;8.70;99.90;;;;;;5088261;28;20024;-50
2022/11/07 00:04:39;;;;;;;3.75;2.92;;;8.60;99.90;;;;;;5089072;28;20020;-50
2022/11/07 00:07:05;;;;;;;4.38;2.88;;;8.60;99.90;;;;;;5084771;28;20020;-52
2022/11/07 00:09:31;;;;;;;3.05;2.63;;;8.70;99.90;;;;;;5081099;28;20028;-54
2022/11/07 00:11:56;;;;;;;3.63;2.63;;;8.70;99.90;;;;;;5086458;28;20511;-52
2022/11/07 00:14:22;;;;;;;3.38;3.08;;;8.70;99.90;;;;;;5081696;28;20032;-51
2022/11/07 00:16:48;;;;;;;3.75;2.42;;;8.80;99.90;;;;;;5079319;28;20029;-53
2022/11/07 00:19:19;;;;;;;2.95;2.45;;;8.80;99.90;;;;;;5088666;28;20647;-51
2022/11/07 00:21:45;;;;;;;4.47;2.45;;;8.80;99.90;;;;;;5088232;28;20024;-53
2022/11/07 00:24:12;;;;;;;5.57;3.00;;;8.80;99.90;;;;;;5081190;28;20047;-53
2022/11/07 00:26:38;;;;;;;2.95;2.70;;;8.90;99.90;;;;;;5058579;28;20028;-51
2022/11/07 00:29:04;;;;;;;5.20;3.15;;;8.90;99.90;;;;;;5062734;28;20028;-56
2022/11/07 00:31:31;;;;;;;4.28;2.60;;;8.90;99.90;;;;;;5076824;28;20024;-50
2022/11/07 00:33:57;;;;;;;3.40;2.80;;;8.90;99.90;;;;;;5084240;28;20503;-52
2022/11/07 00:36:24;;;;;;;3.42;3.00;;;9.00;99.90;;;;;;5062224;28;20028;-53
2022/11/07 00:38:50;;;;;;;5.75;3.53;;;9.00;99.90;;;;;;5070030;28;20024;-52
2022/11/07 00:41:16;;;;;;;4.38;3.40;;;9.00;99.90;;;;;;5084651;28;20125;-52
2022/11/07 00:43:42;;;;;;;4.57;3.45;;;9.10;99.90;;;;;;5088165;28;20036;-54
2022/11/07 00:46:09;;;;;;;3.55;3.25;;;9.10;99.90;;;;;;5070452;28;20090;-53
2022/11/07 00:48:36;;;;;;;3.85;3.17;;;9.20;99.90;;;;;;5086991;28;20024;-54
2022/11/07 00:51:10;;;;;;;4.65;3.22;;;9.10;99.90;;;;;;5061950;28;20040;-52
2022/11/07 00:53:36;;;;;;;8.48;3.60;;;9.10;99.90;;;;;;5088259;28;20475;-52
2022/11/07 00:56:13;;;;;;;5.38;3.30;;;9.20;99.90;;;;;;5086765;28;20082;-53
2022/11/07 00:58:40;;;;;;;4.05;2.97;;;9.20;99.90;;;;;;5076223;28;20024;-56
2022/11/07 01:01:13;;;;;;;5.65;3.20;;;9.20;99.90;;;;;;5068809;28;20024;-51
2022/11/07 01:06:23;;;;;;;3.45;2.80;;;9.20;99.90;;;;;;5084117;28;20453;-51
2022/11/07 01:08:50;;;;;;;7.10;3.22;;;9.20;99.90;;;;;;5090531;28;20031;-53
2022/11/07 01:11:16;;;;;;;3.85;3.30;;;9.20;99.90;;;;;;5082373;28;20059;-51
2022/11/07 01:13:41;;;;;;;3.85;2.90;;;9.30;99.90;;;;;;5091578;28;20068;-53
2022/11/07 01:16:10;;;;;;;3.50;2.85;;;9.30;99.90;;;;;;5083885;28;20552;-52
2022/11/07 01:18:37;;;;;;;4.38;3.50;;;9.30;99.90;;;;;;5069739;28;20028;-53
2022/11/07 01:21:07;;;;;;;3.80;3.05;;;9.30;99.90;;;;;;5065517;28;20439;-56
2022/11/07 01:23:34;;;;;;;3.83;2.70;;;9.40;99.90;;;;;;5087381;28;20048;-52
2022/11/07 01:26:08;;;;;;;4.80;3.03;;;9.30;99.90;;;;;;5081779;28;20031;-54
2022/11/07 01:28:34;;;;;;;5.10;3.00;;;9.40;99.90;;;;;;5064526;28;20032;-51
2022/11/07 01:31:06;;;;;;;5.93;3.10;;;9.40;99.90;;;;;;5087303;28;20537;-51
2022/11/07 01:33:32;;;;;;;6.60;3.33;;;9.40;99.90;;;;;;5084592;28;20118;-51
2022/11/07 01:36:11;;;;;;;5.25;2.85;;;9.40;99.90;;;;;;5088020;28;20053;-51
2022/11/07 01:38:38;;;;;;;3.45;3.13;;;9.40;99.90;;;;;;5090424;28;20031;-55
2022/11/07 01:41:20;;;;;;;3.63;2.60;;;9.40;99.90;;;;;;5080296;28;20055;-52
2022/11/07 01:43:51;;;;;;;5.68;2.72;;;9.40;99.90;;;;;;5089475;28;20036;-52
2022/11/07 01:46:17;;;;;;;2.85;2.60;;;9.40;99.90;;;;;;5083208;28;20024;-52
2022/11/07 01:48:52;;;;;;;3.28;2.75;;;9.40;99.90;;;;;;5088731;28;20057;-50
2022/11/07 01:51:19;;;;;;;7.13;2.92;;;9.40;99.90;;;;;;5087855;28;20055;-52
2022/11/07 01:53:45;;;;;;;5.35;3.28;;;9.40;99.90;;;;;;5091174;28;20036;-52
2022/11/07 01:56:17;;;;;;;4.93;3.25;;;9.40;99.90;;;;;;5091310;28;20076;-50
2022/11/07 01:58:45;;;;;;;3.22;2.85;;;9.40;99.90;;;;;;5070595;28;20032;-53
2022/11/07 02:01:12;;;;;;;4.88;3.17;;;9.40;99.90;;;;;;5068165;28;20027;-53
2022/11/07 02:03:38;;;;;;;6.07;3.33;;;9.40;99.90;;;;;;5087514;28;20073;-55
2022/11/07 02:06:09;;;;;;;4.07;3.15;;;9.40;99.90;;;;;;5090521;28;20024;-50
2022/11/07 02:08:37;;;;;;;5.30;2.78;;;9.40;99.90;;;;;;5089486;28;20040;-51
2022/11/07 02:11:05;;;;;;;3.75;3.08;;;9.50;99.90;;;;;;5090730;28;20509;-52
2022/11/07 02:13:31;;;;;;;4.35;2.47;;;9.50;99.90;;;;;;5071534;28;20441;-51
2022/11/07 02:16:02;;;;;;;4.07;2.88;;;9.50;99.90;;;;;;5090682;28;20120;-51
2022/11/07 02:18:32;;;;;;;5.28;2.83;;;9.60;99.90;;;;;;5089337;28;20051;-53
2022/11/07 02:21:03;;;;;;;3.15;2.85;;;9.60;99.90;;;;;;5071268;28;20107;-53
2022/11/07 02:23:43;;;;;;;4.13;3.00;;;9.60;99.90;;;;;;5084936;28;20387;-52
2022/11/07 02:26:09;;;;;;;3.90;2.97;;;9.60;99.90;;;;;;5090531;28;20123;-53
2022/11/07 02:28:37;;;;;;;3.63;2.50;;;9.60;99.90;;;;;;5090648;28;20055;-53
2022/11/07 02:31:03;;;;;;;5.32;2.63;;;9.60;99.90;;;;;;5090547;28;20442;-53
2022/11/07 02:33:28;;;;;;;4.28;3.28;;;9.60;99.90;;;;;;5071950;28;20024;-52
2022/11/07 02:35:54;;;;;;;5.57;3.08;;;9.60;99.90;;;;;;5067622;28;20024;-54
2022/11/07 02:38:32;;;;;;;3.72;2.92;;;9.60;99.90;;;;;;5088985;28;20644;-50
2022/11/07 02:41:08;;;;;;;3.38;2.58;;;9.60;99.90;;;;;;5090571;28;20368;-53
2022/11/07 02:43:38;;;;;;;3.47;3.10;;;9.70;99.90;;;;;;5071024;28;20026;-54
2022/11/07 02:46:07;;;;;;;5.05;2.75;;;9.70;99.90;;;;;;5079911;28;20127;-54
2022/11/07 02:48:45;;;;;;;3.53;2.90;;;9.70;99.90;;;;;;5088175;28;20032;-51
2022/11/07 02:51:11;;;;;;;4.03;3.13;;;9.70;99.90;;;;;;5078551;28;20032;-55
2022/11/07 02:53:36;;;;;;;3.95;3.08;;;9.70;99.90;;;;;;5085463;28;20089;-52
2022/11/07 02:56:03;;;;;;;4.32;3.15;;;9.80;99.90;;;;;;5088070;28;20093;-51
2022/11/07 02:58:28;;;;;;;5.57;3.30;;;9.80;99.90;;;;;;5083330;28;20029;-54
2022/11/07 03:00:54;;;;;;;4.78;3.13;;;9.80;99.90;;;;;;5087676;28;20050;-50
2022/11/07 03:03:20;;;;;;;5.25;3.15;;;9.80;99.90;;;;;;5081779;28;20480;-55
2022/11/07 03:05:45;;;;;;;6.93;3.17;;;9.80;99.90;;;;;;5087682;28;20363;-54
2022/11/07 03:08:11;;;;;;;5.53;3.03;;;9.80;99.90;;;;;;5089578;28;20031;-53
2022/11/07 03:10:36;;;;;;;5.63;2.97;;;9.90;99.90;;;;;;5067857;28;20044;-53
2022/11/07 03:13:03;;;;;;;6.47;3.17;;;9.90;99.90;;;;;;5085820;28;20020;-49
2022/11/07 03:15:28;;;;;;;5.65;3.33;;;9.90;99.90;;;;;;5085495;28;20025;-54
2022/11/07 03:17:54;;;;;;;3.70;2.80;;;9.90;99.90;;;;;;5083194;28;20040;-49
2022/11/07 03:20:19;;;;;;;3.63;2.72;;;9.90;99.90;;;;;;5089601;28;20021;-52
2022/11/07 03:22:48;;;;;;;7.72;2.63;;;10.00;99.90;;;;;;5087598;28;20020;-53
2022/11/07 03:25:13;;;;;;;4.25;2.67;;;10.00;99.90;;;;;;5088683;28;20119;-52
2022/11/07 03:27:49;;;;;;;4.07;3.08;;;10.00;99.90;;;;;;5089207;28;20024;-55
2022/11/07 03:30:15;;;;;;;3.90;2.60;;;10.00;99.90;;;;;;5084665;28;20115;-51
2022/11/07 03:32:41;;;;;;;2.88;2.55;;;10.00;99.90;;;;;;5083870;28;20043;-53
2022/11/07 03:35:07;;;;;;;3.88;2.47;;;10.10;99.90;;;;;;5067754;28;20024;-54
2022/11/07 03:37:32;;;;;;;3.13;2.42;;;10.10;99.90;;;;;;5084033;28;20499;-53
2022/11/07 03:39:58;;;;;;;3.80;2.92;;;10.00;99.90;;;;;;5089486;28;20051;-53
2022/11/07 03:42:23;;;;;;;4.53;2.90;;;10.00;99.90;;;;;;5071285;28;20054;-55
2022/11/07 03:44:49;;;;;;;5.05;2.83;;;10.10;99.90;;;;;;5089250;28;20023;-51
2022/11/07 03:47:15;;;;;;;7.53;2.92;;;10.10;99.90;;;;;;5065414;28;20368;-53
2022/11/07 03:49:40;;;;;;;7.13;2.85;;;10.10;99.90;;;;;;5088965;28;20028;-54
2022/11/07 03:52:06;;;;;;;3.58;2.75;;;10.10;99.90;;;;;;5069517;28;20038;-55
2022/11/07 03:54:31;;;;;;;5.05;2.72;;;10.10;99.90;;;;;;5089045;28;20095;-52
2022/11/07 03:56:57;;;;;;;3.42;2.53;;;10.20;99.90;;;;;;5089233;28;20109;-53
2022/11/07 03:59:23;;;;;;;3.55;2.80;;;10.20;99.90;;;;;;5081789;28;20024;-54
2022/11/07 04:01:48;;;;;;;5.82;2.85;;;10.20;99.90;;;;;;5059224;28;20101;-51
2022/11/07 04:04:14;;;;;;;4.40;2.90;;;10.20;99.90;;;;;;5077263;28;20048;-51
2022/11/07 04:06:39;;;;;;;5.43;3.00;;;10.20;99.90;;;;;;5070928;28;20020;-53
2022/11/07 04:09:05;;;;;;;4.70;2.83;;;10.20;99.90;;;;;;5070319;28;20022;-56
2022/11/07 04:17:17;;;;;;;5.03;3.10;;;10.20;99.90;;;;;;5085648;28;20035;-56
2022/11/07 04:19:43;;;;;;;4.18;3.13;;;10.20;99.90;;;;;;5066482;28;20450;-52
2022/11/07 04:22:08;;;;;;;4.72;2.55;;;10.20;99.90;;;;;;5083046;28;20024;-55
2022/11/07 04:24:34;;;;;;;5.75;2.53;;;10.10;99.90;;;;;;5088057;28;20020;-53
2022/11/07 04:29:44;;;;;;;4.72;2.90;;;10.20;99.90;;;;;;5084894;28;20043;-54
2022/11/07 04:32:09;;;;;;;4.07;2.70;;;10.20;99.90;;;;;;5087870;28;20028;-53
2022/11/07 04:34:35;;;;;;;6.35;3.35;;;10.20;99.90;;;;;;5086518;28;20043;-52
2022/11/07 04:37:00;;;;;;;3.53;2.65;;;10.30;99.90;;;;;;5078932;28;20036;-52
2022/11/07 04:39:27;;;;;;;4.78;2.55;;;10.30;99.90;;;;;;5081625;28;20035;-54
2022/11/07 04:41:53;;;;;;;5.95;2.42;;;10.30;99.90;;;;;;5091757;28;20065;-54
2022/11/07 04:44:18;;;;;;;4.25;2.55;;;10.40;99.90;;;;;;5092252;28;20062;-55
2022/11/07 04:46:44;;;;;;;2.95;2.45;;;10.40;99.90;;;;;;5091574;28;20024;-51
2022/11/07 04:49:13;;;;;;;7.30;3.08;;;10.40;99.90;;;;;;5089187;28;20472;-51
2022/11/07 04:51:43;;;;;;;5.38;2.83;;;10.40;99.90;;;;;;5070228;28;20593;-55
2022/11/07 04:54:15;;;;;;;6.35;3.30;;;10.40;99.90;;;;;;5074298;28;20020;-52
2022/11/07 04:56:40;;;;;;;4.53;2.72;;;10.40;99.90;;;;;;5089567;28;20036;-55
2022/11/07 04:59:06;;;;;;;5.47;3.28;;;10.40;99.90;;;;;;5092204;28;20487;-53
2022/11/07 05:01:32;;;;;;;5.93;3.08;;;10.40;99.90;;;;;;5073526;28;20039;-52
2022/11/07 05:03:58;;;;;;;3.95;2.45;;;10.40;99.90;;;;;;5069428;28;20483;-50
2022/11/07 05:06:24;;;;;;;6.70;2.60;;;10.40;99.90;;;;;;5067137;28;20016;-52
2022/11/07 05:08:49;;;;;;;3.15;2.40;;;10.40;99.90;;;;;;5092027;28;20024;-53
2022/11/07 05:11:15;;;;;;;5.90;2.85;;;10.40;99.90;;;;;;5088508;28;20471;-53
2022/11/07 05:13:40;;;;;;;5.18;3.05;;;10.50;99.90;;;;;;5091368;28;20486;-52
2022/11/07 05:16:12;;;;;;;4.72;2.58;;;10.50;99.90;;;;;;5087399;28;20443;-52
2022/11/07 05:18:38;;;;;;;3.20;2.58;;;10.50;99.90;;;;;;5073189;28;20039;-50
2022/11/07 05:21:03;;;;;;;3.13;2.30;;;10.40;99.90;;;;;;5089170;28;20087;-52
2022/11/07 05:23:29;;;;;;;8.70;3.50;;;10.50;99.90;;;;;;5070007;28;20103;-50
2022/11/07 05:25:55;;;;;;;6.10;2.75;;;10.50;99.90;;;;;;5073382;28;20032;-54
2022/11/07 05:28:26;;;;;;;4.07;2.25;;;10.60;99.90;;;;;;5091220;28;20020;-56
2022/11/07 05:30:52;;;;;;;4.68;3.05;;;10.50;99.90;;;;;;5091654;28;20067;-56
2022/11/07 05:33:19;;;;;;;7.50;2.50;;;10.50;99.90;;;;;;5085624;28;20060;-51
2022/11/07 05:35:45;;;;;;;4.28;2.63;;;10.50;99.90;;;;;;5079778;28;20028;-52
2022/11/07 05:38:11;;;;;;;4.70;2.70;;;10.50;99.90;;;;;;5085867;28;20099;-54
2022/11/07 05:40:39;;;;;;;6.30;2.60;;;10.40;99.90;;;;;;5091180;28;20056;-54
2022/11/07 05:43:08;;;;;;;5.35;2.58;;;10.40;99.90;;;;;;5073429;28;20016;-55
2022/11/07 05:45:39;;;;;;;3.17;2.13;;;10.50;99.90;;;;;;5091992;28;20020;-55
2022/11/07 05:48:08;;;;;;;8.38;2.92;;;10.40;99.90;;;;;;5090079;28;20489;-54
2022/11/07 05:50:34;;;;;;;3.78;2.55;;;10.40;99.90;;;;;;5080900;28;20532;-55
2022/11/07 05:53:00;;;;;;;5.53;2.97;;;10.40;99.90;;;;;;5069560;28;20049;-52
2022/11/07 05:55:25;;;;;;;4.55;2.42;;;10.30;99.90;;;;;;5091192;28;20023;-50
2022/11/07 05:57:51;;;;;;;4.53;2.47;;;10.30;99.90;;;;;;5088221;28;20154;-53
2022/11/07 06:00:17;;;;;;;5.22;2.45;;;10.20;99.90;;;;;;5072971;28;20024;-52
2022/11/07 06:02:44;;;;;;;5.38;2.40;;;10.20;99.90;;;;;;5083254;28;20646;-53
2022/11/07 06:05:10;;;;;;;8.57;3.35;;;10.20;99.90;;;;;;5088776;28;20035;-51
2022/11/07 06:07:37;;;;;;;8.32;2.60;;;10.20;99.90;;;;;;5072791;28;20024;-51
2022/11/07 06:10:05;;;;;;;6.63;3.33;;;10.20;99.90;;;;;;5085246;28;20020;-54
2022/11/07 06:12:30;;;;;;;5.03;2.60;;;10.20;99.90;;;;;;5089695;28;20020;-51
2022/11/07 06:14:56;;;;;;;4.35;2.25;;;10.20;99.90;;;;;;5082816;28;20069;-52
2022/11/07 06:17:22;;;;;;;5.03;2.35;;;10.20;99.90;;;;;;5067661;28;20047;-50
2022/11/07 06:19:47;;;;;;;4.20;2.85;;;10.20;99.90;;;;;;5065036;28;20035;-52
2022/11/07 06:22:13;;;;;;;4.28;2.90;;;10.10;99.90;;;;;;5069374;28;20028;-54
2022/11/07 06:24:38;;;;;;;6.28;2.60;;;10.10;99.90;;;;;;5090815;28;20020;-51
2022/11/07 06:27:04;;;;;;;4.13;2.58;;;10.10;99.90;;;;;;5086120;28;20441;-52
2022/11/07 06:29:29;;;;;;;8.52;3.17;;;10.20;99.90;;;;;;5085114;28;20036;-53
2022/11/07 06:31:55;;;;;;;4.03;2.55;;;10.10;99.90;;;;;;5087588;28;20020;-53
2022/11/07 06:34:20;;;;;;;5.38;3.10;;;10.10;99.90;;;;;;5124920;22;20086;-61
2022/11/07 06:36:50;;;;;;;6.05;3.28;;;10.10;99.90;;;;;;5077829;28;20023;-61
2022/11/07 06:39:16;;;;;;;5.22;2.97;;;10.10;99.90;;;;;;5080419;28;20028;-61
2022/11/07 06:41:41;;;;;;;4.13;2.67;;;10.10;99.90;;;;;;5097315;28;20077;-60
2022/11/07 06:44:07;;;;;;;4.28;2.97;;;10.10;99.90;;;;;;5107265;28;20031;-62
2022/11/07 06:46:32;;;;;;;5.63;2.95;;;10.10;99.90;;;;;;5108567;28;20020;-63
2022/11/07 06:48:58;;;;;;;4.85;2.50;;;10.10;99.90;;;;;;5104530;28;20027;-61
2022/11/07 06:51:24;;;;;;;4.43;2.60;;;10.10;99.90;;;;;;5103796;28;20106;-61
2022/11/07 06:53:49;;;;;;;3.03;2.75;;;10.10;99.90;;;;;;5110541;28;20437;-59
2022/11/07 06:56:15;;;;;;;5.47;2.90;;;10.10;99.90;;;;;;5097389;28;20024;-61
2022/11/07 06:58:41;;;;;;;7.35;3.30;;;10.20;99.90;;;;;;5092161;28;20073;-61
2022/11/07 07:01:12;;;;;;;5.03;2.53;;;10.20;99.90;;;;;;5105720;28;20020;-61
2022/11/07 07:03:39;;;;;;;5.47;3.25;;;10.10;99.90;;;;;;5104932;28;20027;-61
2022/11/07 07:06:06;;;;;;;6.63;2.78;;;10.20;99.90;;;;;;5101894;28;20020;-60
2022/11/07 07:08:33;;;;;;;7.80;3.15;;;10.20;99.90;;;;;;5109926;28;20015;-60
2022/11/07 07:11:04;;;;;;;11.50;3.03;;;10.20;99.90;;;;;;5109200;28;20118;-60
2022/11/07 07:13:30;;;;;;;7.15;2.65;;;10.10;99.90;;;;;;5109130;28;20074;-60
2022/11/07 07:15:57;;;;;;;5.75;3.35;;;10.10;99.90;;;;;;5108532;28;20197;-60
2022/11/07 07:18:23;;;;;;;7.03;2.88;;;10.10;99.90;;;;;;5107958;28;20039;-58
2022/11/07 07:20:50;;;;;;;6.13;2.90;;;10.20;99.90;;;;;;5109143;28;20390;-62
2022/11/07 07:23:17;;;;;;;3.58;2.80;;;10.20;99.90;;;;;;5107249;28;20629;-60
2022/11/07 07:25:43;;;;;;;6.55;3.13;;;10.10;99.90;;;;;;5091205;28;20026;-61
2022/11/07 07:28:09;;;;;;;6.68;3.30;;;10.20;99.90;;;;;;5103071;28;20035;-61
2022/11/07 07:30:34;;;;;;;7.95;3.30;;;10.20;99.90;;;;;;5104247;28;20609;-60
2022/11/07 07:33:00;;;;;;;4.75;2.83;;;10.20;99.90;;;;;;5107751;28;20506;-60
2022/11/07 07:35:25;;;;;;;4.63;2.47;;;10.20;99.90;;;;;;5104551;28;20034;-59
2022/11/07 07:37:51;;;;;;;9.00;3.63;;;10.20;99.90;;;;;;5102914;28;20035;-60
2022/11/07 07:40:18;;;;;;;6.07;2.80;;;10.30;99.90;;;;;;5089142;28;20019;-60
2022/11/07 07:42:44;;;;;;;6.47;3.05;;;10.30;99.90;;;;;;5105146;28;20023;-59
2022/11/07 07:45:11;;;;;;;4.35;2.50;;;10.30;99.90;;;;;;5107289;28;20064;-60
2022/11/07 07:47:38;;;;;;;7.93;2.63;;;10.30;99.90;;;;;;5101312;28;20020;-59
2022/11/07 07:50:05;;;;;;;7.85;3.10;;;10.30;99.90;;;;;;5099584;28;20028;-60
2022/11/07 07:52:30;;;;;;;6.93;3.28;;;10.30;99.90;;;;;;5105399;28;20032;-60
2022/11/07 07:54:56;;;;;;;5.13;3.25;;;10.30;99.90;;;;;;5108454;28;20111;-60
2022/11/07 07:57:22;;;;;;;6.75;4.82;;;10.40;99.90;;;;;;5101095;28;20107;-60
2022/11/07 07:59:47;;;;;;;37.47;21.00;;;10.40;99.90;;;;;;5104801;28;20019;-58
2022/11/07 08:02:13;;;;;;;8.43;4.55;;;10.50;99.90;;;;;;5098484;28;20149;-60
2022/11/07 08:04:40;;;;;;;26.73;15.77;;;10.60;99.90;;;;;;5104643;28;20015;-58
2022/11/07 08:07:05;;;;;;;23.48;12.70;;;10.60;99.90;;;;;;5098091;28;20099;-60
2022/11/07 08:09:35;;;;;;;13.93;6.05;;;10.70;99.90;;;;;;5109320;28;20107;-60
2022/11/07 08:12:04;;;;;;;17.95;12.93;;;10.70;99.90;;;;;;5106691;28;20036;-59
2022/11/07 08:14:31;;;;;;;11.68;5.97;;;10.70;99.90;;;;;;5108770;28;20032;-59
2022/11/07 08:16:57;;;;;;;19.30;12.13;;;10.70;99.90;;;;;;5087447;28;20600;-58
2022/11/07 08:19:22;;;;;;;12.55;8.55;;;10.70;99.90;;;;;;5108683;28;20023;-60
2022/11/07 08:21:48;;;;;;;8.52;3.67;;;10.80;99.90;;;;;;5104024;28;20103;-60
2022/11/07 08:24:13;;;;;;;6.38;4.25;;;10.90;99.90;;;;;;5085821;28;20023;-59
2022/11/07 08:26:39;;;;;;;7.30;2.88;;;10.90;99.90;;;;;;5109299;28;20012;-60
2022/11/07 08:29:05;;;;;;;7.47;3.35;;;10.90;99.90;;;;;;5104178;28;20024;-59
2022/11/07 08:31:30;;;;;;;5.25;3.20;;;11.00;99.90;;;;;;5108848;28;20024;-59
2022/11/07 08:33:57;;;;;;;4.25;2.78;;;11.00;99.90;;;;;;5077973;28;20036;-58
2022/11/07 08:36:23;;;;;;;8.20;2.58;;;11.00;99.90;;;;;;5095834;28;20020;-59
2022/11/07 08:38:49;;;;;;;4.80;2.97;;;11.00;99.90;;;;;;5094321;28;20189;-60
2022/11/07 08:41:14;;;;;;;6.57;2.70;;;11.00;99.90;;;;;;5103035;28;20652;-60
2022/11/07 08:43:40;;;;;;;5.95;3.38;;;11.10;99.90;;;;;;5096246;28;20054;-60
2022/11/07 08:46:06;;;;;;;5.10;2.78;;;11.10;99.90;;;;;;5103063;28;20023;-60
2022/11/07 08:48:32;;;;;;;8.63;3.90;;;11.10;99.90;;;;;;5109070;28;20387;-60
2022/11/07 08:51:01;;;;;;;5.05;2.80;;;11.20;99.90;;;;;;5099562;28;20028;-61
2022/11/07 08:53:27;;;;;;;6.50;2.97;;;11.20;99.90;;;;;;5084823;28;20027;-60
2022/11/07 08:56:03;;;;;;;2.85;2.33;;;11.20;99.90;;;;;;5100188;28;20558;-61
2022/11/07 08:58:28;;;;;;;6.57;2.70;;;11.20;99.90;;;;;;5102048;28;20106;-60
2022/11/07 09:00:54;;;;;;;5.32;2.42;;;11.30;99.90;;;;;;5107177;28;20103;-60
2022/11/07 09:03:19;;;;;;;5.90;2.83;;;11.30;99.90;;;;;;5104176;28;20020;-60
2022/11/07 09:05:45;;;;;;;5.43;2.45;;;11.30;99.90;;;;;;5097213;28;20027;-60
2022/11/07 09:08:10;;;;;;;4.03;2.58;;;11.40;99.90;;;;;;5108782;28;20725;-60
2022/11/07 09:10:36;;;;;;;8.18;2.78;;;11.40;99.90;;;;;;5105099;28;20028;-60
2022/11/07 09:13:02;;;;;;;9.30;2.58;;;11.40;99.90;;;;;;5089259;28;20042;-60
2022/11/07 09:15:27;;;;;;;5.68;2.60;;;11.50;99.90;;;;;;5086282;28;20368;-60
2022/11/07 09:17:53;;;;;;;7.03;3.30;;;11.50;99.90;;;;;;5107351;28;20011;-60
2022/11/07 09:20:18;;;;;;;5.47;2.85;;;11.50;99.90;;;;;;5104828;28;20639;-58
2022/11/07 09:22:44;;;;;;;5.40;2.75;;;11.60;99.90;;;;;;5104792;28;20402;-60
2022/11/07 09:25:10;;;;;;;8.60;3.45;;;11.70;99.90;;;;;;5108614;28;20027;-56
2022/11/07 09:27:36;;;;;;;4.10;3.00;;;11.80;99.90;;;;;;5106549;28;20149;-58
2022/11/07 09:30:03;;;;;;;7.78;3.15;;;11.80;99.90;;;;;;5111939;28;20542;-61
2022/11/07 09:32:28;;;;;;;5.43;2.70;;;11.90;99.90;;;;;;5105313;28;20055;-59
2022/11/07 09:34:54;;;;;;;6.88;3.05;;;11.90;99.90;;;;;;5112212;28;20035;-60
2022/11/07 09:37:20;;;;;;;6.78;3.40;;;12.00;99.90;;;;;;5108385;28;20024;-61
2022/11/07 09:39:46;;;;;;;6.70;2.78;;;12.00;99.90;;;;;;5110887;28;20022;-60
2022/11/07 09:42:33;;;;;;;7.75;2.33;;;12.10;99.90;;;;;;5111649;28;20386;-58
2022/11/07 09:45:00;;;;;;;6.47;2.75;;;12.00;99.90;;;;;;5107020;28;20015;-59
2022/11/07 09:47:44;;;;;;;7.70;2.88;;;12.10;99.90;;;;;;5105465;28;20023;-56
2022/11/07 09:50:30;;;;;;;5.00;3.15;;;12.10;99.90;;;;;;5106624;28;20516;-59
2022/11/07 09:53:21;;;;;;;8.32;2.80;;;12.20;99.90;;;;;;5099915;28;20751;-59
2022/11/07 09:55:52;;;;;;;5.15;2.67;;;12.20;99.90;;;;;;5103837;28;20019;-60
2022/11/07 09:58:27;;;;;;;6.85;2.70;;;12.20;99.90;;;;;;5108765;28;20093;-57
2022/11/07 10:00:57;;;;;;;6.85;2.55;;;12.30;99.90;;;;;;5102400;28;20015;-57
2022/11/07 10:03:23;;;;;;;5.75;2.97;;;12.30;99.90;;;;;;5101948;28;20062;-57
2022/11/07 10:05:54;;;;;;;8.23;2.92;;;12.30;99.90;;;;;;5109020;28;20023;-59
2022/11/07 10:08:39;;;;;;;3.70;2.38;;;12.40;99.90;;;;;;5110731;28;20031;-60
2022/11/07 10:11:35;;;;;;;8.45;3.20;;;12.50;99.90;;;;;;5098722;28;20514;-56
2022/11/07 10:14:39;;;;;;;6.47;2.50;;;12.60;99.90;;;;;;5090789;28;20036;-58
2022/11/07 10:17:22;;;;;;;7.80;3.05;;;12.70;99.90;;;;;;5091829;28;20487;-61
2022/11/07 10:19:55;;;;;;;4.18;2.85;;;12.70;99.90;;;;;;5110178;28;20023;-59
2022/11/07 10:23:15;;;;;;;5.88;2.30;;;12.70;99.90;;;;;;5103458;28;20024;-61
2022/11/07 10:25:46;;;;;;;4.28;2.40;;;12.60;99.90;;;;;;5026502;28;20541;-62
2022/11/07 10:28:15;;;;;;;8.13;2.58;;;12.60;99.90;;;;;;5087361;28;20035;-59
2022/11/07 10:30:47;;;;;;;3.95;2.30;;;12.60;99.90;;;;;;5086178;28;20159;-60
2022/11/07 10:33:31;;;;;;;4.78;2.55;;;12.60;99.90;;;;;;5098204;28;20032;-58
2022/11/07 10:36:04;;;;;;;7.75;3.40;;;12.60;99.90;;;;;;5108915;28;20094;-59
2022/11/07 10:38:33;;;;;;;6.28;3.47;;;12.60;99.90;;;;;;5105330;28;20111;-61
2022/11/07 10:40:58;;;;;;;6.93;3.40;;;12.60;99.90;;;;;;5107661;28;20035;-59
2022/11/07 10:43:39;;;;;;;4.72;2.97;;;12.70;99.90;;;;;;5111411;28;20019;-60
2022/11/07 10:46:18;;;;;;;8.45;3.28;;;12.60;99.90;;;;;;5106548;28;20028;-59
2022/11/07 10:48:55;;;;;;;9.15;3.25;;;12.70;99.90;;;;;;5099442;28;20067;-60
2022/11/07 10:51:38;;;;;;;7.35;3.05;;;12.70;99.90;;;;;;5102668;28;20067;-59
2022/11/07 10:54:05;;;;;;;8.35;3.38;;;12.70;99.90;;;;;;5110494;28;20027;-60
2022/11/07 10:56:47;;;;;;;8.98;3.83;;;12.60;99.90;;;;;;5107750;28;20102;-58
2022/11/07 10:59:22;;;;;;;6.15;3.30;;;12.60;99.90;;;;;;5110187;28;20032;-59
2022/11/07 11:01:54;;;;;;;5.72;2.88;;;12.60;99.90;;;;;;5107851;28;20502;-59
2022/11/07 11:04:22;;;;;;;7.45;3.50;;;12.60;99.90;;;;;;5096804;28;20433;-56
2022/11/07 11:06:56;;;;;;;7.65;2.72;;;12.60;99.90;;;;;;5107015;28;20116;-57
2022/11/07 11:09:26;;;;;;;9.30;3.45;;;12.60;99.90;;;;;;5079836;28;20361;-59
2022/11/07 11:11:52;;;;;;;6.63;3.17;;;12.70;99.90;;;;;;5103328;28;20024;-59
2022/11/07 11:14:20;;;;;;;7.72;3.42;;;12.60;99.90;;;;;;5105229;28;20024;-60
2022/11/07 11:16:53;;;;;;;6.93;3.00;;;12.70;99.90;;;;;;5110115;28;20540;-59
2022/11/07 11:19:25;;;;;;;5.03;2.78;;;12.60;99.90;;;;;;5090421;28;20035;-60
2022/11/07 11:21:53;;;;;;;6.53;2.97;;;12.60;99.90;;;;;;5104845;28;20064;-59
2022/11/07 11:24:28;;;;;;;6.18;2.95;;;12.60;99.90;;;;;;5100852;28;20024;-59
2022/11/07 11:26:58;;;;;;;6.80;3.38;;;12.60;99.90;;;;;;5109525;28;20097;-62
2022/11/07 11:29:40;;;;;;;7.05;3.50;;;12.60;99.90;;;;;;5108454;28;20106;-60
2022/11/07 11:32:15;;;;;;;4.97;2.50;;;12.70;99.90;;;;;;5108443;28;20047;-60
2022/11/07 11:35:03;;;;;;;7.40;3.63;;;12.70;99.90;;;;;;5108930;28;20058;-58
2022/11/07 11:37:32;;;;;;;5.85;2.80;;;12.80;99.90;;;;;;5102239;28;20023;-61
2022/11/07 11:39:57;;;;;;;7.25;3.05;;;12.80;99.90;;;;;;5100534;28;20027;-60
2022/11/07 11:42:31;;;;;;;7.90;3.08;;;12.80;99.90;;;;;;5109296;28;20110;-60
2022/11/07 11:45:02;;;;;;;3.47;2.45;;;12.80;99.90;;;;;;5104319;28;20027;-60
2022/11/07 11:47:38;;;;;;;8.10;2.90;;;12.90;99.90;;;;;;5103184;28;20528;-61
2022/11/07 11:50:03;;;;;;;;;;;12.90;99.90;;;;;;5095229;28;20442;-60
2022/11/07 11:52:33;;;;;;;8.47;3.00;;;12.90;99.90;;;;;;5107744;28;19939;-60
2022/11/07 11:55:00;;;;;;;7.70;3.10;;;12.90;99.90;;;;;;5103372;28;20624;-59
2022/11/07 11:57:31;;;;;;;6.80;2.85;;;12.90;99.90;;;;;;5085982;28;20020;-60
2022/11/07 12:00:03;;;;;;;10.15;3.28;;;12.90;99.90;;;;;;5102209;28;20030;-57
2022/11/07 12:02:37;;;;;;;7.60;3.42;;;13.00;99.90;;;;;;5073938;28;20039;-58
2022/11/07 12:05:11;;;;;;;5.65;3.03;;;13.00;99.90;;;;;;5102423;28;20026;-60
2022/11/07 12:08:14;;;;;;;8.13;2.55;;;13.00;99.90;;;;;;5096046;28;20037;-59
2022/11/07 12:10:43;;;;;;;6.18;3.45;;;13.00;99.90;;;;;;5105361;28;20503;-58
2022/11/07 12:13:34;;;;;;;6.22;3.05;;;13.00;99.90;;;;;;5108095;28;20031;-59
2022/11/07 12:16:03;;;;;;;6.55;2.55;;;12.90;99.90;;;;;;5103215;28;20107;-59
2022/11/07 12:18:50;;;;;;;6.13;3.33;;;12.90;99.90;;;;;;5097967;28;20032;-60
2022/11/07 12:21:34;;;;;;;4.40;3.22;;;12.90;99.90;;;;;;5102336;28;20173;-60
2022/11/07 12:24:12;;;;;;;7.55;3.22;;;12.90;99.90;;;;;;5106277;28;20032;-58
2022/11/07 12:27:01;;;;;;;7.55;3.03;;;12.80;99.90;;;;;;5109641;28;20042;-59
2022/11/07 12:30:00;;;;;;;7.00;2.83;;;12.80;99.90;;;;;;5106386;28;20508;-59
2022/11/07 12:32:54;;;;;;;6.50;3.50;;;12.70;99.90;;;;;;5099587;28;20133;-59
2022/11/07 12:35:51;;;;;;;6.35;3.30;;;12.80;99.90;;;;;;5084631;22;20062;-53
2022/11/07 12:38:25;;;;;;;5.65;2.83;;;12.80;99.90;;;;;;5060733;28;20112;-54
2022/11/07 12:41:11;;;;;;;5.72;3.22;;;12.80;99.90;;;;;;5059058;28;20032;-50
2022/11/07 12:43:55;;;;;;;10.40;4.05;;;12.80;99.90;;;;;;5068884;28;20062;-53
2022/11/07 12:46:25;;;;;;;13.90;5.65;;;12.80;99.90;;;;;;5065816;28;20016;-52
2022/11/07 12:49:02;;;;;;;14.02;5.70;;;12.80;99.90;;;;;;5068516;28;20068;-53
2022/11/07 12:51:38;;;;;;;30.05;13.07;;;12.80;99.90;;;;;;5068207;28;20211;-52
2022/11/07 12:54:24;;;;;;;;;;;12.80;99.90;;;;;;5065729;28;20024;-52
2022/11/07 12:56:51;;;;;;;34.92;12.80;;;12.80;99.90;;;;;;5068430;28;20428;-55
2022/11/07 12:59:25;;;;;;;9.70;4.72;;;12.80;99.90;;;;;;5068454;28;20032;-53
2022/11/07 13:02:19;;;;;;;26.80;10.35;;;12.80;99.90;;;;;;5069793;28;20021;-55
2022/11/07 13:05:06;;;;;;;23.05;10.10;;;12.80;99.90;;;;;;5070529;28;20020;-51
2022/11/07 13:07:38;;;;;;;21.27;9.93;;;12.80;99.90;;;;;;5071865;28;20020;-53
2022/11/07 13:10:14;;;;;;;6.45;3.65;;;12.90;99.90;;;;;;5072067;28;20028;-50
2022/11/07 13:13:01;;;;;;;;;;;12.90;99.90;;;;;;5057951;28;20103;-50
2022/11/07 13:15:29;;;;;;;23.13;12.98;;;13.00;99.90;;;;;;5067089;28;19953;-53